Time;durP1;ratioP1;P1;durP2;ratioP2;P2;SDS_P1;SDS_P2;PMS_P1;PMS_P2;Temp;Humidity;BMP_temperature;BMP_pressure;BME280_temperature;BME280_humidity;BME280_pressure;Samples;Min_cycle;Max_cycle;Signal;HPM_P1;HPM_P2
2021/07/01 00:02:08;;;;;;;9.25;3.97;;;;;;;;;;5054868;28;20086;-44
2021/07/01 00:04:33;;;;;;;3.60;2.58;;;;;;;;;;5059829;28;20055;-42
2021/07/01 00:06:59;;;;;;;3.53;2.38;;;;;;;;;;5058768;28;20070;-42
2021/07/01 00:09:25;;;;;;;7.03;2.90;;;;;;;;;;5059693;28;20095;-44
2021/07/01 00:11:52;;;;;;;7.40;4.35;;;;;;;;;;5057738;28;20053;-42
2021/07/01 00:14:18;;;;;;;6.95;2.72;;;;;;;;;;5057130;28;20066;-43
2021/07/01 00:16:44;;;;;;;4.90;2.15;;;;;;;;;;5054735;28;20115;-44
2021/07/01 00:19:09;;;;;;;3.13;2.50;;;;;;;;;;5054648;28;20698;-42
2021/07/01 00:21:35;;;;;;;8.15;3.97;;;;;;;;;;5054900;28;20024;-42
2021/07/01 00:24:01;;;;;;;4.68;2.83;;;;;;;;;;5056454;28;20028;-43
2021/07/01 00:26:26;;;;;;;5.43;2.95;;;;;;;;;;5058429;28;20036;-42
2021/07/01 00:28:51;;;;;;;4.90;2.90;;;;;;;;;;5059629;28;20111;-43
2021/07/01 00:31:17;;;;;;;6.18;2.75;;;;;;;;;;5059239;28;20029;-41
2021/07/01 00:33:42;;;;;;;4.40;2.55;;;;;;;;;;5054626;28;20024;-43
2021/07/01 00:36:07;;;;;;;5.65;2.65;;;;;;;;;;5055426;28;20021;-42
2021/07/01 00:38:33;;;;;;;7.03;3.92;;;;;;;;;;5057857;28;20037;-42
2021/07/01 00:40:59;;;;;;;6.22;3.10;;;;;;;;;;5055086;28;20040;-42
2021/07/01 00:43:24;;;;;;;5.55;2.30;;;;;;;;;;5055797;28;20020;-42
2021/07/01 00:45:50;;;;;;;11.57;2.40;;;;;;;;;;5054949;28;20503;-42
2021/07/01 00:48:15;;;;;;;7.80;3.35;;;;;;;;;;5058645;28;20021;-43
2021/07/01 00:50:40;;;;;;;4.72;3.22;;;;;;;;;;5055823;28;20024;-42
2021/07/01 00:53:06;;;;;;;4.28;2.40;;;;;;;;;;5052260;28;20028;-43
2021/07/01 00:55:32;;;;;;;4.07;2.35;;;;;;;;;;5055714;28;20025;-44
2021/07/01 00:57:58;;;;;;;9.85;3.25;;;;;;;;;;5055196;28;20571;-44
2021/07/01 01:00:37;;;;;;;3.92;3.08;;;;;;;;;;5057574;28;20108;-43
2021/07/01 01:03:02;;;;;;;7.57;3.35;;;;;;;;;;5055621;28;20052;-43
2021/07/01 01:05:27;;;;;;;3.53;2.92;;;;;;;;;;5060109;28;20112;-43
2021/07/01 01:07:52;;;;;;;7.57;3.22;;;;;;;;;;5056764;28;20051;-42
2021/07/01 01:10:18;;;;;;;8.35;2.97;;;;;;;;;;5058232;28;20112;-44
2021/07/01 01:12:44;;;;;;;4.18;2.17;;;;;;;;;;5058997;28;20739;-42
2021/07/01 01:15:09;;;;;;;8.57;3.13;;;;;;;;;;5061475;28;20025;-42
2021/07/01 01:17:35;;;;;;;8.90;2.67;;;;;;;;;;5056805;28;20048;-43
2021/07/01 01:20:00;;;;;;;5.53;2.60;;;;;;;;;;5058246;28;20021;-42
2021/07/01 01:22:25;;;;;;;7.05;2.47;;;;;;;;;;5056095;28;20029;-43
2021/07/01 01:24:51;;;;;;;5.47;2.30;;;;;;;;;;5061387;28;20029;-42
2021/07/01 01:27:18;;;;;;;12.23;3.28;;;;;;;;;;5059090;28;20419;-44
2021/07/01 01:29:43;;;;;;;2.83;2.05;;;;;;;;;;5056459;28;20024;-42
2021/07/01 01:32:09;;;;;;;5.07;3.03;;;;;;;;;;5060311;28;20116;-43
2021/07/01 01:34:34;;;;;;;7.78;3.38;;;;;;;;;;5057553;28;20021;-43
2021/07/01 01:36:59;;;;;;;3.25;2.45;;;;;;;;;;5054028;28;20063;-44
2021/07/01 01:39:25;;;;;;;6.80;3.38;;;;;;;;;;5058889;28;20480;-43
2021/07/01 01:41:50;;;;;;;8.43;2.65;;;;;;;;;;5059784;28;20025;-43
2021/07/01 01:44:15;;;;;;;7.47;3.80;;;;;;;;;;5055021;28;20439;-43
2021/07/01 01:46:41;;;;;;;7.05;3.60;;;;;;;;;;5057498;28;20036;-42
2021/07/01 01:49:06;;;;;;;4.65;1.95;;;;;;;;;;5053906;28;20016;-42
2021/07/01 01:51:32;;;;;;;5.78;3.28;;;;;;;;;;5057385;28;20017;-42
2021/07/01 01:53:57;;;;;;;4.57;2.60;;;;;;;;;;5057712;28;20395;-43
2021/07/01 01:56:23;;;;;;;6.20;2.22;;;;;;;;;;5055497;28;20020;-42
2021/07/01 01:58:48;;;;;;;5.07;2.40;;;;;;;;;;5045541;28;20008;-43
2021/07/01 02:01:14;;;;;;;8.90;3.75;;;;;;;;;;5058320;28;20024;-44
2021/07/01 02:03:39;;;;;;;8.57;3.85;;;;;;;;;;5062471;28;20098;-42
2021/07/01 02:06:04;;;;;;;5.15;3.10;;;;;;;;;;5059050;28;20733;-43
2021/07/01 02:08:32;;;;;;;6.82;3.33;;;;;;;;;;5060373;28;20064;-42
2021/07/01 02:10:57;;;;;;;3.40;2.75;;;;;;;;;;5054399;28;20045;-46
2021/07/01 02:13:22;;;;;;;5.47;2.33;;;;;;;;;;5055873;28;20518;-48
2021/07/01 02:15:48;;;;;;;4.20;2.10;;;;;;;;;;5059840;28;20050;-45
2021/07/01 02:18:13;;;;;;;9.55;2.28;;;;;;;;;;5058158;28;20086;-46
2021/07/01 02:20:38;;;;;;;3.65;2.40;;;;;;;;;;5058689;28;20020;-48
2021/07/01 02:23:04;;;;;;;5.35;2.55;;;;;;;;;;5056303;28;20099;-45
2021/07/01 02:25:30;;;;;;;3.22;2.25;;;;;;;;;;5059748;28;20381;-44
2021/07/01 02:27:55;;;;;;;4.10;3.10;;;;;;;;;;5053884;28;20029;-44
2021/07/01 02:30:20;;;;;;;5.10;2.50;;;;;;;;;;5055826;28;20036;-44
2021/07/01 02:32:46;;;;;;;13.30;3.42;;;;;;;;;;5058720;28;20128;-45
2021/07/01 02:35:11;;;;;;;13.25;2.30;;;;;;;;;;5058509;28;20017;-43
2021/07/01 02:37:37;;;;;;;6.90;3.03;;;;;;;;;;5056322;28;20483;-44
2021/07/01 02:40:06;;;;;;;5.78;3.17;;;;;;;;;;5059795;28;20027;-43
2021/07/01 02:42:32;;;;;;;8.07;2.53;;;;;;;;;;5053114;28;20020;-44
2021/07/01 02:44:57;;;;;;;2.72;1.73;;;;;;;;;;5058182;28;20240;-45
2021/07/01 02:47:22;;;;;;;2.92;2.17;;;;;;;;;;5059575;28;20792;-44
2021/07/01 02:49:47;;;;;;;4.78;2.17;;;;;;;;;;5054752;28;20043;-45
2021/07/01 02:52:13;;;;;;;7.25;3.85;;;;;;;;;;5058506;28;20481;-46
2021/07/01 02:54:38;;;;;;;5.72;2.13;;;;;;;;;;5057407;28;20048;-44
2021/07/01 02:57:03;;;;;;;10.63;3.85;;;;;;;;;;5054611;28;20020;-43
2021/07/01 02:59:29;;;;;;;4.95;2.90;;;;;;;;;;5058646;28;20028;-42
2021/07/01 03:01:54;;;;;;;3.05;1.70;;;;;;;;;;5059425;28;20035;-44
2021/07/01 03:04:19;;;;;;;4.03;1.98;;;;;;;;;;5060508;28;20040;-47
2021/07/01 03:06:45;;;;;;;5.20;2.80;;;;;;;;;;5058687;28;20103;-48
2021/07/01 03:09:10;;;;;;;5.95;2.22;;;;;;;;;;5056642;28;20021;-44
2021/07/01 03:11:36;;;;;;;5.90;2.75;;;;;;;;;;5055348;28;20045;-46
2021/07/01 03:14:03;;;;;;;4.97;2.45;;;;;;;;;;5057943;28;20040;-44
2021/07/01 03:16:28;;;;;;;7.97;2.83;;;;;;;;;;5058350;28;20035;-45
2021/07/01 03:18:54;;;;;;;5.90;3.13;;;;;;;;;;5059150;28;20021;-47
2021/07/01 03:21:20;;;;;;;4.18;2.40;;;;;;;;;;5057388;28;20389;-44
2021/07/01 03:23:45;;;;;;;5.25;2.80;;;;;;;;;;5055861;28;20025;-43
2021/07/01 03:26:11;;;;;;;4.60;1.58;;;;;;;;;;5056306;28;20390;-45
2021/07/01 03:28:37;;;;;;;5.45;2.55;;;;;;;;;;5057254;28;20025;-42
2021/07/01 03:31:03;;;;;;;10.25;2.85;;;;;;;;;;5056192;28;20047;-46
2021/07/01 03:33:28;;;;;;;7.20;3.40;;;;;;;;;;5059404;28;20113;-44
2021/07/01 03:35:53;;;;;;;1.90;1.70;;;;;;;;;;5058013;28;20025;-45
2021/07/01 03:38:19;;;;;;;2.20;1.65;;;;;;;;;;5051701;28;20074;-44
2021/07/01 03:40:44;;;;;;;5.75;2.30;;;;;;;;;;5057508;28;20103;-45
2021/07/01 03:43:09;;;;;;;4.97;2.47;;;;;;;;;;5056612;28;20031;-45
2021/07/01 03:45:35;;;;;;;10.13;2.85;;;;;;;;;;5059207;28;20014;-43
2021/07/01 03:48:00;;;;;;;5.03;3.03;;;;;;;;;;5054415;28;20036;-44
2021/07/01 03:50:25;;;;;;;5.75;2.70;;;;;;;;;;5053043;28;20025;-46
2021/07/01 03:52:51;;;;;;;12.48;3.83;;;;;;;;;;5056729;28;20086;-45
2021/07/01 03:55:18;;;;;;;3.67;2.00;;;;;;;;;;5058269;28;20509;-44
2021/07/01 03:57:44;;;;;;;6.20;2.95;;;;;;;;;;5058131;28;20025;-42
2021/07/01 04:00:10;;;;;;;3.85;2.40;;;;;;;;;;5057252;28;20020;-43
2021/07/01 04:02:35;;;;;;;5.70;3.78;;;;;;;;;;5057777;28;20060;-42
2021/07/01 04:05:00;;;;;;;4.65;2.00;;;;;;;;;;5056041;28;20114;-42
2021/07/01 04:07:26;;;;;;;4.05;2.42;;;;;;;;;;5056993;28;20047;-45
2021/07/01 04:09:52;;;;;;;3.72;2.28;;;;;;;;;;5055099;28;20020;-43
2021/07/01 04:12:17;;;;;;;5.15;1.48;;;;;;;;;;5055781;28;20194;-43
2021/07/01 04:14:42;;;;;;;2.70;2.28;;;;;;;;;;5058192;28;20582;-43
2021/07/01 04:17:08;;;;;;;6.88;2.28;;;;;;;;;;5059910;28;20420;-45
2021/07/01 04:19:33;;;;;;;9.63;3.00;;;;;;;;;;5057303;28;20056;-44
2021/07/01 04:21:59;;;;;;;3.40;2.67;;;;;;;;;;5059143;28;20028;-43
2021/07/01 04:24:24;;;;;;;6.55;2.78;;;;;;;;;;5058596;28;20537;-45
2021/07/01 04:26:49;;;;;;;4.95;3.30;;;;;;;;;;5056505;28;20025;-44
2021/07/01 04:29:15;;;;;;;5.03;2.67;;;;;;;;;;5054478;28;20391;-44
2021/07/01 04:31:40;;;;;;;5.05;3.00;;;;;;;;;;5059849;28;20472;-45
2021/07/01 04:34:07;;;;;;;4.65;2.65;;;;;;;;;;5057213;28;20388;-43
2021/07/01 04:36:32;;;;;;;7.35;3.08;;;;;;;;;;5058253;28;20044;-42
2021/07/01 04:38:57;;;;;;;4.88;3.58;;;;;;;;;;5056869;28;20527;-42
2021/07/01 04:41:23;;;;;;;6.18;2.22;;;;;;;;;;5056787;28;20603;-44
2021/07/01 04:43:48;;;;;;;3.92;2.65;;;;;;;;;;5058988;28;20098;-46
2021/07/01 04:46:14;;;;;;;17.15;4.53;;;;;;;;;;5063621;28;20103;-43
2021/07/01 04:48:40;;;;;;;15.57;2.67;;;;;;;;;;5063157;28;20028;-43
2021/07/01 04:51:06;;;;;;;6.32;4.72;;;;;;;;;;5048625;28;20017;-45
2021/07/01 04:53:31;;;;;;;7.70;3.05;;;;;;;;;;5059224;28;20506;-43
2021/07/01 04:55:56;;;;;;;8.27;2.78;;;;;;;;;;5060077;28;20103;-44
2021/07/01 04:58:22;;;;;;;5.30;2.55;;;;;;;;;;5059092;28;20016;-45
2021/07/01 05:00:48;;;;;;;8.05;3.67;;;;;;;;;;5060555;28;20546;-46
2021/07/01 05:03:13;;;;;;;5.88;3.67;;;;;;;;;;5063619;28;20024;-41
2021/07/01 05:05:39;;;;;;;4.45;3.30;;;;;;;;;;5056688;28;20561;-43
2021/07/01 05:08:04;;;;;;;4.40;3.10;;;;;;;;;;5056917;28;20035;-44
2021/07/01 05:10:30;;;;;;;4.57;2.70;;;;;;;;;;5055263;28;20048;-45
2021/07/01 05:12:55;;;;;;;9.80;3.88;;;;;;;;;;5056419;28;20074;-44
2021/07/01 05:15:22;;;;;;;4.55;2.63;;;;;;;;;;5057671;28;20088;-45
2021/07/01 05:17:47;;;;;;;12.02;5.20;;;;;;;;;;5059008;28;20025;-45
2021/07/01 05:20:13;;;;;;;6.07;3.83;;;;;;;;;;5062385;28;20341;-43
2021/07/01 05:22:38;;;;;;;15.85;5.05;;;;;;;;;;5062100;28;20501;-41
2021/07/01 05:25:04;;;;;;;11.43;4.07;;;;;;;;;;5058841;28;20028;-50
2021/07/01 05:27:29;;;;;;;6.10;3.20;;;;;;;;;;5058596;28;20025;-41
2021/07/01 05:29:54;;;;;;;12.43;4.13;;;;;;;;;;5056913;28;20021;-45
2021/07/01 05:32:20;;;;;;;17.67;3.55;;;;;;;;;;5055241;28;20538;-43
2021/07/01 05:34:45;;;;;;;8.77;2.85;;;;;;;;;;5059141;28;20028;-44
2021/07/01 05:37:10;;;;;;;4.45;2.42;;;;;;;;;;5058375;28;20498;-44
2021/07/01 05:39:36;;;;;;;9.13;3.15;;;;;;;;;;5056321;28;20110;-44
2021/07/01 05:42:01;;;;;;;5.45;1.60;;;;;;;;;;5057466;28;20162;-42
2021/07/01 05:44:27;;;;;;;4.30;2.60;;;;;;;;;;5058289;28;20534;-43
2021/07/01 05:46:52;;;;;;;4.35;2.78;;;;;;;;;;5053992;28;20519;-43
2021/07/01 05:49:17;;;;;;;2.83;2.15;;;;;;;;;;5058517;28;20017;-41
2021/07/01 05:51:44;;;;;;;4.32;2.78;;;;;;;;;;5057854;28;20024;-43
2021/07/01 05:56:54;;;;;;;3.92;2.20;;;;;;;;;;5061166;28;20110;-43
2021/07/01 05:59:20;;;;;;;7.68;2.33;;;;;;;;;;5059577;28;20135;-41
2021/07/01 06:01:46;;;;;;;8.07;3.78;;;;;;;;;;5057323;28;20025;-42
2021/07/01 06:04:11;;;;;;;8.63;3.05;;;;;;;;;;5056631;28;20021;-41
2021/07/01 06:06:39;;;;;;;8.82;2.67;;;;;;;;;;5055381;28;20032;-41
2021/07/01 06:09:05;;;;;;;6.03;2.22;;;;;;;;;;5054280;28;20039;-43
2021/07/01 06:11:32;;;;;;;11.73;4.00;;;;;;;;;;5053083;28;20052;-42
2021/07/01 06:13:58;;;;;;;9.20;6.03;;;;;;;;;;5057729;28;20056;-42
2021/07/01 06:16:24;;;;;;;10.98;5.93;;;;;;;;;;5057505;28;20109;-42
2021/07/01 06:18:50;;;;;;;9.90;5.95;;;;;;;;;;5057819;28;20024;-41
2021/07/01 06:21:16;;;;;;;14.88;8.15;;;;;;;;;;5057657;28;20526;-41
2021/07/01 06:23:42;;;;;;;6.90;5.55;;;;;;;;;;5060633;28;20102;-44
2021/07/01 06:26:08;;;;;;;34.15;8.70;;;;;;;;;;5058086;28;20025;-42
2021/07/01 06:28:38;;;;;;;11.15;7.28;;;;;;;;;;5060685;28;20048;-41
2021/07/01 06:31:03;;;;;;;11.48;6.75;;;;;;;;;;5054972;28;20117;-43
2021/07/01 06:33:29;;;;;;;16.08;7.95;;;;;;;;;;5055873;28;20165;-41
2021/07/01 06:35:55;;;;;;;13.45;5.93;;;;;;;;;;5054620;28;20017;-45
2021/07/01 06:38:23;;;;;;;7.57;4.47;;;;;;;;;;5056380;28;20013;-41
2021/07/01 06:40:49;;;;;;;12.07;4.22;;;;;;;;;;5056512;28;20040;-41
2021/07/01 06:43:18;;;;;;;5.43;4.30;;;;;;;;;;5046756;28;20590;-46
2021/07/01 06:45:44;;;;;;;15.88;5.35;;;;;;;;;;5057840;28;20028;-42
2021/07/01 06:48:10;;;;;;;6.30;3.60;;;;;;;;;;5060226;28;20028;-43
2021/07/01 06:50:35;;;;;;;12.60;5.50;;;;;;;;;;5058399;28;20031;-42
2021/07/01 06:53:01;;;;;;;6.40;4.03;;;;;;;;;;5058357;28;20013;-42
2021/07/01 06:55:27;;;;;;;32.63;9.73;;;;;;;;;;5060339;28;20114;-41
2021/07/01 06:57:54;;;;;;;5.82;4.05;;;;;;;;;;5055900;28;20028;-43
2021/07/01 07:00:19;;;;;;;3.00;2.15;;;;;;;;;;5057099;28;20096;-45
2021/07/01 07:02:45;;;;;;;6.10;2.55;;;;;;;;;;5061551;28;20143;-42
2021/07/01 07:05:12;;;;;;;7.30;2.92;;;;;;;;;;5054858;28;20064;-42
2021/07/01 07:07:41;;;;;;;4.10;3.38;;;;;;;;;;5058444;28;20442;-41
2021/07/01 07:10:07;;;;;;;11.25;3.70;;;;;;;;;;5058112;28;20068;-41
2021/07/01 07:12:38;;;;;;;3.38;2.33;;;;;;;;;;5035842;28;20202;-46
2021/07/01 07:15:04;;;;;;;5.78;2.97;;;;;;;;;;5035105;28;20096;-41
2021/07/01 07:17:31;;;;;;;12.98;2.92;;;;;;;;;;5034375;28;20120;-45
2021/07/01 07:20:00;;;;;;;9.57;7.07;;;;;;;;;;5037073;28;20043;-41
2021/07/01 07:22:29;;;;;;;5.65;3.35;;;;;;;;;;5036023;28;20080;-42
2021/07/01 07:24:59;;;;;;;27.48;6.18;;;;;;;;;;5038406;28;20248;-45
2021/07/01 07:27:28;;;;;;;5.97;4.10;;;;;;;;;;5039755;28;20099;-42
2021/07/01 07:29:54;;;;;;;4.53;2.70;;;;;;;;;;5035835;28;20044;-42
2021/07/01 07:32:21;;;;;;;6.05;2.53;;;;;;;;;;5034767;28;20526;-43
2021/07/01 07:34:48;;;;;;;4.72;1.92;;;;;;;;;;5035945;28;20044;-42
2021/07/01 07:37:13;;;;;;;4.45;3.13;;;;;;;;;;5036775;28;20484;-42
2021/07/01 07:39:39;;;;;;;3.88;2.53;;;;;;;;;;5036163;28;20098;-43
2021/07/01 07:42:06;;;;;;;4.43;2.33;;;;;;;;;;5039112;28;20385;-42
2021/07/01 07:44:32;;;;;;;5.40;4.03;;;;;;;;;;5038864;28;20022;-43
2021/07/01 07:46:57;;;;;;;20.15;4.93;;;;;;;;;;5037967;28;20447;-44
2021/07/01 07:49:22;;;;;;;8.13;5.00;;;;;;;;;;5037776;28;20029;-42
2021/07/01 07:51:49;;;;;;;13.85;4.60;;;;;;;;;;5041198;28;20535;-42
2021/07/01 07:54:17;;;;;;;16.05;4.72;;;;;;;;;;5039505;28;20159;-42
2021/07/01 07:56:47;;;;;;;7.40;5.63;;;;;;;;;;5037568;28;20564;-41
2021/07/01 07:59:12;;;;;;;10.77;5.50;;;;;;;;;;5036106;28;20024;-42
2021/07/01 08:01:38;;;;;;;11.30;7.57;;;;;;;;;;5035978;28;20033;-42
2021/07/01 08:04:05;;;;;;;8.50;6.18;;;;;;;;;;5033739;28;20388;-42
2021/07/01 08:06:30;;;;;;;5.75;4.07;;;;;;;;;;5035141;28;20036;-44
2021/07/01 08:08:57;;;;;;;2.88;2.55;;;;;;;;;;5038008;28;20483;-43
2021/07/01 08:11:24;;;;;;;5.00;3.25;;;;;;;;;;5046219;28;20048;-42
2021/07/01 08:13:54;;;;;;;3.25;2.58;;;;;;;;;;5058685;28;20661;-41
2021/07/01 08:16:21;;;;;;;11.63;5.82;;;;;;;;;;5059619;28;20476;-42
2021/07/01 08:18:46;;;;;;;6.05;3.70;;;;;;;;;;5059228;28;20581;-42
2021/07/01 08:21:13;;;;;;;4.30;2.45;;;;;;;;;;5059124;28;20029;-42
2021/07/01 08:23:39;;;;;;;13.93;5.65;;;;;;;;;;5062048;28;20075;-39
2021/07/01 08:26:05;;;;;;;9.38;4.43;;;;;;;;;;5058757;28;20032;-40
2021/07/01 08:28:31;;;;;;;5.65;2.38;;;;;;;;;;5059913;28;20016;-39
2021/07/01 08:31:05;;;;;;;4.90;2.65;;;;;;;;;;5058862;28;20531;-40
2021/07/01 08:33:35;;;;;;;14.95;2.17;;;;;;;;;;5060707;28;20017;-40
2021/07/01 08:36:01;;;;;;;4.32;2.10;;;;;;;;;;5062551;28;20016;-45
2021/07/01 08:38:27;;;;;;;19.42;3.20;;;;;;;;;;5058682;28;20065;-39
2021/07/01 08:40:57;;;;;;;4.22;3.35;;;;;;;;;;5056269;28;20388;-40
2021/07/01 08:43:24;;;;;;;10.27;9.00;;;;;;;;;;5057166;28;20025;-39
2021/07/01 08:46:06;;;;;;;7.82;3.92;;;;;;;;;;5057810;28;20096;-41
2021/07/01 08:48:39;;;;;;;12.35;2.58;;;;;;;;;;5060553;28;20484;-41
2021/07/01 08:51:08;;;;;;;3.65;2.65;;;;;;;;;;5059742;28;20077;-41
2021/07/01 08:53:33;;;;;;;4.53;3.22;;;;;;;;;;5061227;28;20052;-42
2021/07/01 08:55:59;;;;;;;4.40;2.45;;;;;;;;;;5061160;28;20059;-40
2021/07/01 08:58:25;;;;;;;5.15;3.63;;;;;;;;;;5057548;28;20025;-42
2021/07/01 09:00:51;;;;;;;6.45;3.67;;;;;;;;;;5060735;28;20077;-40
2021/07/01 09:03:17;;;;;;;3.97;1.50;;;;;;;;;;5059718;28;20024;-40
2021/07/01 09:05:45;;;;;;;6.78;2.90;;;;;;;;;;5060197;28;20107;-42
2021/07/01 09:08:11;;;;;;;4.68;1.88;;;;;;;;;;5058146;28;20052;-40
2021/07/01 09:10:37;;;;;;;4.30;2.15;;;;;;;;;;5061707;28;20041;-41
2021/07/01 09:13:04;;;;;;;3.22;1.92;;;;;;;;;;5056916;28;20017;-39
2021/07/01 09:15:30;;;;;;;7.55;2.28;;;;;;;;;;5057594;28;20044;-43
2021/07/01 09:17:56;;;;;;;3.85;1.88;;;;;;;;;;5060459;28;20388;-40
2021/07/01 09:20:23;;;;;;;5.03;2.03;;;;;;;;;;5056860;28;20490;-40
2021/07/01 09:22:53;;;;;;;5.97;3.03;;;;;;;;;;5058540;28;20017;-40
2021/07/01 09:25:19;;;;;;;5.18;1.95;;;;;;;;;;5055760;28;20017;-41
2021/07/01 09:27:49;;;;;;;2.00;1.52;;;;;;;;;;5058858;28;20085;-41
2021/07/01 09:30:16;;;;;;;5.07;1.67;;;;;;;;;;5054316;28;20067;-40
2021/07/01 09:32:42;;;;;;;6.97;3.03;;;;;;;;;;5055818;28;20052;-42
2021/07/01 09:35:08;;;;;;;7.10;2.38;;;;;;;;;;5060138;28;20059;-40
2021/07/01 09:37:43;;;;;;;2.33;2.05;;;;;;;;;;5057478;28;20044;-41
2021/07/01 09:40:10;;;;;;;3.75;1.85;;;;;;;;;;5056523;28;20041;-40
2021/07/01 09:42:35;;;;;;;10.30;2.10;;;;;;;;;;5054473;28;20037;-41
2021/07/01 09:45:06;;;;;;;3.80;1.95;;;;;;;;;;5059966;28;20043;-40
2021/07/01 09:47:35;;;;;;;2.60;1.80;;;;;;;;;;5056395;28;20106;-44
2021/07/01 09:50:02;;;;;;;4.85;1.58;;;;;;;;;;5058313;28;20543;-40
2021/07/01 09:52:31;;;;;;;10.85;2.92;;;;;;;;;;5056444;28;20037;-43
2021/07/01 09:54:59;;;;;;;3.58;1.80;;;;;;;;;;5056917;28;20033;-40
2021/07/01 09:57:30;;;;;;;2.67;1.77;;;;;;;;;;5057261;28;20048;-40
2021/07/01 09:59:58;;;;;;;2.05;0.90;;;;;;;;;;5057685;28;20032;-42
2021/07/01 10:02:24;;;;;;;4.63;2.15;;;;;;;;;;5055591;28;20075;-40
2021/07/01 10:04:49;;;;;;;2.70;2.25;;;;;;;;;;5052894;28;20419;-41
2021/07/01 10:07:19;;;;;;;3.92;1.13;;;;;;;;;;5057231;28;20033;-40
2021/07/01 10:09:45;;;;;;;8.40;2.75;;;;;;;;;;5059019;28;20488;-40
2021/07/01 10:12:14;;;;;;;2.47;1.58;;;;;;;;;;5055181;28;20044;-41
2021/07/01 10:14:40;;;;;;;9.95;0.88;;;;;;;;;;5057955;28;20035;-40
2021/07/01 10:17:09;;;;;;;12.23;1.90;;;;;;;;;;5057461;28;20025;-45
2021/07/01 10:19:34;;;;;;;4.45;1.52;;;;;;;;;;5056101;28;20025;-42
2021/07/01 10:22:07;;;;;;;5.43;1.52;;;;;;;;;;5055479;28;20479;-41
2021/07/01 10:24:35;;;;;;;3.72;1.23;;;;;;;;;;5056000;28;20045;-45
2021/07/01 10:27:01;;;;;;;3.00;1.10;;;;;;;;;;5058615;28;20021;-41
2021/07/01 10:29:37;;;;;;;2.00;1.20;;;;;;;;;;5057802;28;20033;-44
2021/07/01 10:32:06;;;;;;;3.20;1.65;;;;;;;;;;5059130;28;20064;-42
2021/07/01 10:34:45;;;;;;;2.80;1.55;;;;;;;;;;5056808;28;20048;-42
2021/07/01 10:37:14;;;;;;;12.15;3.97;;;;;;;;;;5058693;28;20033;-42
2021/07/01 10:39:40;;;;;;;13.07;1.98;;;;;;;;;;5054479;28;20484;-42
2021/07/01 10:42:05;;;;;;;1.40;0.70;;;;;;;;;;5055515;28;20045;-41
2021/07/01 10:44:31;;;;;;;2.40;1.35;;;;;;;;;;5055791;28;20368;-41
2021/07/01 10:46:56;;;;;;;4.60;1.02;;;;;;;;;;5054100;28;20087;-41
2021/07/01 10:49:31;;;;;;;16.55;3.17;;;;;;;;;;5055288;28;20048;-40
2021/07/01 10:51:57;;;;;;;16.05;5.90;;;;;;;;;;5058625;28;20115;-41
2021/07/01 10:54:22;;;;;;;7.20;1.55;;;;;;;;;;5056250;28;20024;-42
2021/07/01 10:56:50;;;;;;;2.15;1.48;;;;;;;;;;5056183;28;20016;-40
2021/07/01 10:59:15;;;;;;;9.27;2.15;;;;;;;;;;5056921;28;20028;-40
2021/07/01 11:01:41;;;;;;;6.68;1.27;;;;;;;;;;5055279;28;20104;-40
2021/07/01 11:04:07;;;;;;;4.57;2.03;;;;;;;;;;5060509;28;20427;-40
2021/07/01 11:06:32;;;;;;;3.45;1.50;;;;;;;;;;5057501;28;20021;-40
2021/07/01 11:08:58;;;;;;;10.23;2.63;;;;;;;;;;5053946;28;20028;-42
2021/07/01 11:11:29;;;;;;;3.92;1.63;;;;;;;;;;5056378;28;20037;-40
2021/07/01 11:13:58;;;;;;;1.58;0.60;;;;;;;;;;5052750;28;20364;-43
2021/07/01 11:16:41;;;;;;;9.82;1.50;;;;;;;;;;5056642;28;20017;-41
2021/07/01 11:19:08;;;;;;;7.50;2.63;;;;;;;;;;5054108;28;20059;-40
2021/07/01 11:21:33;;;;;;;10.57;1.98;;;;;;;;;;5056364;28;20050;-41
2021/07/01 11:24:09;;;;;;;11.52;2.35;;;;;;;;;;5059461;28;20024;-42
2021/07/01 11:26:34;;;;;;;5.03;2.05;;;;;;;;;;5057252;28;20044;-40
2021/07/01 11:29:03;;;;;;;2.95;1.33;;;;;;;;;;5058339;28;20467;-40
2021/07/01 11:31:44;;;;;;;10.45;3.53;;;;;;;;;;5052911;28;20031;-40
2021/07/01 11:34:10;;;;;;;5.28;2.58;;;;;;;;;;5054281;28;20044;-40
2021/07/01 11:36:36;;;;;;;8.38;2.45;;;;;;;;;;5053676;28;20025;-41
2021/07/01 11:39:04;;;;;;;4.60;2.55;;;;;;;;;;5056676;28;20025;-40
2021/07/01 11:41:31;;;;;;;5.05;3.08;;;;;;;;;;5054879;28;20059;-40
2021/07/01 11:43:57;;;;;;;4.90;1.00;;;;;;;;;;5054863;28;20391;-40
2021/07/01 11:46:23;;;;;;;4.45;1.90;;;;;;;;;;5055776;28;20111;-41
2021/07/01 11:48:50;;;;;;;3.40;1.45;;;;;;;;;;5056670;28;20111;-41
2021/07/01 11:51:16;;;;;;;2.15;1.25;;;;;;;;;;5055049;28;20120;-40
2021/07/01 11:53:42;;;;;;;2.17;1.58;;;;;;;;;;5055389;28;20170;-40
2021/07/01 11:56:07;;;;;;;3.97;1.63;;;;;;;;;;5055203;28;20372;-40
2021/07/01 11:58:32;;;;;;;6.13;2.25;;;;;;;;;;5058041;28;20021;-40
2021/07/01 12:00:58;;;;;;;2.53;2.00;;;;;;;;;;5055393;28;20056;-44
2021/07/01 12:03:24;;;;;;;2.25;1.17;;;;;;;;;;5055734;28;20025;-43
2021/07/01 12:05:50;;;;;;;7.72;2.35;;;;;;;;;;5053260;28;20025;-42
2021/07/01 12:08:16;;;;;;;5.53;1.38;;;;;;;;;;5057733;28;20040;-42
2021/07/01 12:10:42;;;;;;;4.72;1.90;;;;;;;;;;5057112;28;20045;-42
2021/07/01 12:13:26;;;;;;;6.30;3.22;;;;;;;;;;5057052;28;20032;-42
2021/07/01 12:16:06;;;;;;;7.13;2.13;;;;;;;;;;5056913;28;20017;-42
2021/07/01 12:18:44;;;;;;;7.82;2.72;;;;;;;;;;5055304;28;20480;-42
2021/07/01 12:21:09;;;;;;;2.17;1.63;;;;;;;;;;5056423;28;20036;-42
2021/07/01 12:23:42;;;;;;;2.22;1.05;;;;;;;;;;5054808;28;20053;-42
2021/07/01 12:26:08;;;;;;;6.57;2.72;;;;;;;;;;5058026;28;20087;-42
2021/07/01 12:28:38;;;;;;;3.15;1.33;;;;;;;;;;5056862;28;20386;-43
2021/07/01 12:31:08;;;;;;;3.60;2.25;;;;;;;;;;5055785;28;20031;-42
2021/07/01 12:33:38;;;;;;;5.40;1.33;;;;;;;;;;5054109;28;20051;-42
2021/07/01 12:36:04;;;;;;;2.08;0.95;;;;;;;;;;5051935;28;20096;-43
2021/07/01 12:38:30;;;;;;;9.43;2.33;;;;;;;;;;5054103;28;20048;-42
2021/07/01 12:40:56;;;;;;;3.45;2.28;;;;;;;;;;5056567;28;20337;-44
2021/07/01 12:43:40;;;;;;;2.72;1.63;;;;;;;;;;5050933;28;20031;-42
2021/07/01 12:46:07;;;;;;;1.58;1.27;;;;;;;;;;5060605;28;20127;-42
2021/07/01 12:48:39;;;;;;;5.57;1.90;;;;;;;;;;5054548;28;20253;-41
2021/07/01 12:51:24;;;;;;;3.13;0.82;;;;;;;;;;5053561;28;20108;-44
2021/07/01 12:53:49;;;;;;;2.58;1.20;;;;;;;;;;5047557;28;20039;-42
2021/07/01 12:56:44;;;;;;;4.13;1.35;;;;;;;;;;5057943;28;20111;-42
2021/07/01 12:59:09;;;;;;;3.55;2.60;;;;;;;;;;5044328;28;20024;-41
2021/07/01 13:01:35;;;;;;;2.90;1.13;;;;;;;;;;5058781;28;20024;-42
2021/07/01 13:04:00;;;;;;;5.85;2.40;;;;;;;;;;5058963;28;20637;-42
2021/07/01 13:06:25;;;;;;;2.28;0.85;;;;;;;;;;5057335;28;20476;-43
2021/07/01 13:08:51;;;;;;;7.65;1.92;;;;;;;;;;5060243;28;20028;-44
2021/07/01 13:11:16;;;;;;;5.40;2.25;;;;;;;;;;5059016;28;20135;-44
2021/07/01 13:13:41;;;;;;;2.30;0.95;;;;;;;;;;5053767;28;20039;-43
2021/07/01 13:16:07;;;;;;;2.80;1.38;;;;;;;;;;5061959;28;20016;-42
2021/07/01 13:18:32;;;;;;;3.60;1.50;;;;;;;;;;5058155;28;20028;-44
2021/07/01 13:21:10;;;;;;;6.93;3.08;;;;;;;;;;5057653;28;20017;-43
2021/07/01 13:23:36;;;;;;;5.70;0.60;;;;;;;;;;5059256;28;20025;-42
2021/07/01 13:26:12;;;;;;;7.05;2.67;;;;;;;;;;5058605;28;20071;-43
2021/07/01 13:28:37;;;;;;;5.20;1.60;;;;;;;;;;5056891;28;20425;-45
2021/07/01 13:31:03;;;;;;;4.10;2.35;;;;;;;;;;5056374;28;20082;-42
2021/07/01 13:33:28;;;;;;;7.30;3.95;;;;;;;;;;5059204;28;20048;-41
2021/07/01 13:35:54;;;;;;;6.30;2.42;;;;;;;;;;5061145;28;20436;-44
2021/07/01 13:38:21;;;;;;;2.67;1.02;;;;;;;;;;5059269;28;20464;-43
2021/07/01 13:40:48;;;;;;;2.25;0.88;;;;;;;;;;5062428;28;20028;-42
2021/07/01 13:43:17;;;;;;;4.95;1.40;;;;;;;;;;5062558;28;20555;-44
2021/07/01 13:45:44;;;;;;;6.20;1.85;;;;;;;;;;5059004;28;20543;-43
2021/07/01 13:48:20;;;;;;;3.08;1.65;;;;;;;;;;5058695;28;20028;-42
2021/07/01 13:50:49;;;;;;;5.13;1.80;;;;;;;;;;5055163;28;20026;-42
2021/07/01 13:53:16;;;;;;;4.30;1.73;;;;;;;;;;5059893;28;20044;-42
2021/07/01 13:55:42;;;;;;;2.30;1.38;;;;;;;;;;5062805;28;20013;-45
2021/07/01 13:58:08;;;;;;;1.85;1.13;;;;;;;;;;5059426;28;20080;-44
2021/07/01 14:00:43;;;;;;;6.22;2.25;;;;;;;;;;5056874;28;20096;-42
2021/07/01 14:03:15;;;;;;;8.70;1.80;;;;;;;;;;5058085;28;20033;-42
2021/07/01 14:05:45;;;;;;;7.63;3.15;;;;;;;;;;5056230;28;20107;-41
2021/07/01 14:08:29;;;;;;;6.13;2.33;;;;;;;;;;5055563;28;20021;-44
2021/07/01 14:10:58;;;;;;;4.07;2.42;;;;;;;;;;5055620;28;20056;-42
2021/07/01 14:13:24;;;;;;;9.10;2.78;;;;;;;;;;5056979;28;20029;-41
2021/07/01 14:15:49;;;;;;;4.30;2.30;;;;;;;;;;5059387;28;20037;-42
2021/07/01 14:18:15;;;;;;;4.85;1.27;;;;;;;;;;5056553;28;20021;-44
2021/07/01 14:20:40;;;;;;;10.30;2.85;;;;;;;;;;5056123;28;20044;-43
2021/07/01 14:23:24;;;;;;;1.75;1.17;;;;;;;;;;5058930;28;20017;-42
2021/07/01 14:25:50;;;;;;;4.88;1.70;;;;;;;;;;5057693;28;20028;-45
2021/07/01 14:28:16;;;;;;;5.20;2.17;;;;;;;;;;5054781;28;20041;-42
2021/07/01 14:30:49;;;;;;;1.70;1.30;;;;;;;;;;5054205;28;20453;-44
2021/07/01 14:33:27;;;;;;;3.47;2.45;;;;;;;;;;5056401;28;20017;-45
2021/07/01 14:35:59;;;;;;;4.05;1.25;;;;;;;;;;5055613;28;20021;-41
2021/07/01 14:38:28;;;;;;;5.95;2.05;;;;;;;;;;5056557;28;20047;-43
2021/07/01 14:41:00;;;;;;;4.22;1.85;;;;;;;;;;5057676;28;20387;-42
2021/07/01 14:43:44;;;;;;;1.60;1.30;;;;;;;;;;5053975;28;20480;-43